sensor_id;sensor_type;location;lat;lon;timestamp;P1;durP1;ratioP1;P2;durP2;ratioP2
13388;SDS011;6764;53.250;10.410;2022-09-09T00:01:32;21.80;;;14.77;;
13388;SDS011;6764;53.250;10.410;2022-09-09T00:04:17;19.03;;;14.97;;
13388;SDS011;6764;53.250;10.410;2022-09-09T00:07:03;15.97;;;14.37;;
13388;SDS011;6764;53.250;10.410;2022-09-09T00:09:45;15.70;;;14.20;;
13388;SDS011;6764;53.250;10.410;2022-09-09T00:15:00;14.38;;;12.93;;
13388;SDS011;6764;53.250;10.410;2022-09-09T00:17:47;14.33;;;12.60;;
13388;SDS011;6764;53.250;10.410;2022-09-09T00:23:12;13.65;;;12.38;;
13388;SDS011;6764;53.250;10.410;2022-09-09T00:28:57;14.02;;;12.65;;
13388;SDS011;6764;53.250;10.410;2022-09-09T00:31:27;14.27;;;12.87;;
13388;SDS011;6764;53.250;10.410;2022-09-09T00:33:54;14.23;;;12.83;;
13388;SDS011;6764;53.250;10.410;2022-09-09T00:36:48;14.60;;;12.93;;
13388;SDS011;6764;53.250;10.410;2022-09-09T00:44:44;16.53;;;14.83;;
13388;SDS011;6764;53.250;10.410;2022-09-09T00:49:54;15.90;;;14.30;;
13388;SDS011;6764;53.250;10.410;2022-09-09T00:52:48;15.87;;;14.33;;
13388;SDS011;6764;53.250;10.410;2022-09-09T00:55:33;15.98;;;14.30;;
13388;SDS011;6764;53.250;10.410;2022-09-09T00:58:10;16.73;;;14.33;;
13388;SDS011;6764;53.250;10.410;2022-09-09T01:03:18;16.67;;;14.97;;
13388;SDS011;6764;53.250;10.410;2022-09-09T01:08:48;48.57;;;15.10;;
13388;SDS011;6764;53.250;10.410;2022-09-09T01:11:26;40.10;;;15.87;;
13388;SDS011;6764;53.250;10.410;2022-09-09T01:16:50;15.33;;;13.37;;
13388;SDS011;6764;53.250;10.410;2022-09-09T01:19:27;19.17;;;15.07;;
13388;SDS011;6764;53.250;10.410;2022-09-09T01:24:44;19.57;;;14.37;;
13388;SDS011;6764;53.250;10.410;2022-09-09T01:27:34;46.63;;;15.60;;
13388;SDS011;6764;53.250;10.410;2022-09-09T01:30:04;41.37;;;15.00;;
13388;SDS011;6764;53.250;10.410;2022-09-09T01:32:44;42.40;;;15.03;;
13388;SDS011;6764;53.250;10.410;2022-09-09T01:38:03;30.07;;;13.70;;
13388;SDS011;6764;53.250;10.410;2022-09-09T01:40:29;17.07;;;14.13;;
13388;SDS011;6764;53.250;10.410;2022-09-09T01:42:54;25.73;;;13.63;;
13388;SDS011;6764;53.250;10.410;2022-09-09T01:45:21;20.60;;;12.83;;
13388;SDS011;6764;53.250;10.410;2022-09-09T01:47:47;39.43;;;13.87;;
13388;SDS011;6764;53.250;10.410;2022-09-09T01:50:14;31.10;;;12.90;;
13388;SDS011;6764;53.250;10.410;2022-09-09T01:52:41;19.97;;;13.93;;
13388;SDS011;6764;53.250;10.410;2022-09-09T01:55:09;19.63;;;12.10;;
13388;SDS011;6764;53.250;10.410;2022-09-09T02:00:24;43.17;;;12.90;;
13388;SDS011;6764;53.250;10.410;2022-09-09T02:08:14;18.47;;;12.50;;
13388;SDS011;6764;53.250;10.410;2022-09-09T02:10:56;14.47;;;12.30;;
13388;SDS011;6764;53.250;10.410;2022-09-09T02:13:28;13.83;;;12.30;;
13388;SDS011;6764;53.250;10.410;2022-09-09T02:16:04;12.47;;;11.17;;
13388;SDS011;6764;53.250;10.410;2022-09-09T02:21:26;12.33;;;11.13;;
13388;SDS011;6764;53.250;10.410;2022-09-09T02:23:53;14.00;;;12.50;;
13388;SDS011;6764;53.250;10.410;2022-09-09T02:26:22;12.67;;;11.37;;
13388;SDS011;6764;53.250;10.410;2022-09-09T02:28:50;12.43;;;11.23;;
13388;SDS011;6764;53.250;10.410;2022-09-09T02:31:18;12.57;;;11.27;;
13388;SDS011;6764;53.250;10.410;2022-09-09T02:33:48;13.60;;;12.27;;
13388;SDS011;6764;53.250;10.410;2022-09-09T02:36:19;13.57;;;12.27;;
13388;SDS011;6764;53.250;10.410;2022-09-09T02:38:48;12.60;;;11.30;;
13388;SDS011;6764;53.250;10.410;2022-09-09T02:41:18;12.53;;;11.23;;
13388;SDS011;6764;53.250;10.410;2022-09-09T02:43:46;12.50;;;11.30;;
13388;SDS011;6764;53.250;10.410;2022-09-09T02:49:02;12.73;;;11.13;;
13388;SDS011;6764;53.250;10.410;2022-09-09T02:54:06;13.23;;;11.97;;
13388;SDS011;6764;53.250;10.410;2022-09-09T02:56:56;12.57;;;11.20;;
13388;SDS011;6764;53.250;10.410;2022-09-09T02:59:32;11.97;;;10.87;;
13388;SDS011;6764;53.250;10.410;2022-09-09T03:01:58;12.07;;;10.97;;
13388;SDS011;6764;53.250;10.410;2022-09-09T03:04:24;13.00;;;10.40;;
13388;SDS011;6764;53.250;10.410;2022-09-09T03:06:50;12.33;;;11.13;;
13388;SDS011;6764;53.250;10.410;2022-09-09T03:09:16;11.97;;;10.77;;
13388;SDS011;6764;53.250;10.410;2022-09-09T03:11:41;11.23;;;10.10;;
13388;SDS011;6764;53.250;10.410;2022-09-09T03:14:07;11.17;;;9.93;;
13388;SDS011;6764;53.250;10.410;2022-09-09T03:16:33;12.77;;;11.57;;
13388;SDS011;6764;53.250;10.410;2022-09-09T03:18:59;12.60;;;11.27;;
13388;SDS011;6764;53.250;10.410;2022-09-09T03:21:25;11.57;;;10.33;;
13388;SDS011;6764;53.250;10.410;2022-09-09T03:23:51;11.53;;;10.43;;
13388;SDS011;6764;53.250;10.410;2022-09-09T03:26:17;11.97;;;10.73;;
13388;SDS011;6764;53.250;10.410;2022-09-09T03:28:42;12.30;;;10.73;;
13388;SDS011;6764;53.250;10.410;2022-09-09T03:31:10;11.00;;;9.90;;
13388;SDS011;6764;53.250;10.410;2022-09-09T03:33:39;11.03;;;10.03;;
13388;SDS011;6764;53.250;10.410;2022-09-09T03:36:06;11.03;;;10.03;;
13388;SDS011;6764;53.250;10.410;2022-09-09T03:38:33;11.00;;;10.00;;
13388;SDS011;6764;53.250;10.410;2022-09-09T03:40:59;10.27;;;9.33;;
13388;SDS011;6764;53.250;10.410;2022-09-09T03:43:26;10.50;;;9.40;;
13388;SDS011;6764;53.250;10.410;2022-09-09T03:45:53;10.40;;;9.47;;
13388;SDS011;6764;53.250;10.410;2022-09-09T03:48:21;10.63;;;9.60;;
13388;SDS011;6764;53.250;10.410;2022-09-09T03:50:48;13.43;;;9.17;;
13388;SDS011;6764;53.250;10.410;2022-09-09T03:53:15;10.40;;;9.40;;
13388;SDS011;6764;53.250;10.410;2022-09-09T03:55:45;10.33;;;9.43;;
13388;SDS011;6764;53.250;10.410;2022-09-09T03:58:13;9.27;;;8.37;;
13388;SDS011;6764;53.250;10.410;2022-09-09T04:00:39;10.17;;;9.17;;
13388;SDS011;6764;53.250;10.410;2022-09-09T04:03:10;9.50;;;8.60;;
13388;SDS011;6764;53.250;10.410;2022-09-09T04:05:36;10.77;;;9.63;;
13388;SDS011;6764;53.250;10.410;2022-09-09T04:08:05;10.47;;;8.63;;
13388;SDS011;6764;53.250;10.410;2022-09-09T04:10:31;8.70;;;7.80;;
13388;SDS011;6764;53.250;10.410;2022-09-09T04:12:57;9.50;;;8.23;;
13388;SDS011;6764;53.250;10.410;2022-09-09T04:15:24;9.13;;;8.33;;
13388;SDS011;6764;53.250;10.410;2022-09-09T04:17:49;9.13;;;8.23;;
13388;SDS011;6764;53.250;10.410;2022-09-09T04:20:15;8.27;;;7.47;;
13388;SDS011;6764;53.250;10.410;2022-09-09T04:22:41;9.83;;;8.83;;
13388;SDS011;6764;53.250;10.410;2022-09-09T04:25:07;9.50;;;7.80;;
13388;SDS011;6764;53.250;10.410;2022-09-09T04:27:32;9.30;;;7.80;;
13388;SDS011;6764;53.250;10.410;2022-09-09T04:29:58;8.03;;;7.33;;
13388;SDS011;6764;53.250;10.410;2022-09-09T04:32:24;10.87;;;7.63;;
13388;SDS011;6764;53.250;10.410;2022-09-09T04:34:52;8.20;;;7.50;;
13388;SDS011;6764;53.250;10.410;2022-09-09T04:37:18;8.17;;;7.37;;
13388;SDS011;6764;53.250;10.410;2022-09-09T04:39:43;7.40;;;6.63;;
13388;SDS011;6764;53.250;10.410;2022-09-09T04:42:10;7.87;;;6.80;;
13388;SDS011;6764;53.250;10.410;2022-09-09T04:44:37;8.37;;;6.73;;
13388;SDS011;6764;53.250;10.410;2022-09-09T04:47:04;7.83;;;7.13;;
13388;SDS011;6764;53.250;10.410;2022-09-09T04:49:30;7.80;;;6.97;;
13388;SDS011;6764;53.250;10.410;2022-09-09T04:51:56;9.00;;;6.23;;
13388;SDS011;6764;53.250;10.410;2022-09-09T04:54:22;6.77;;;6.17;;
13388;SDS011;6764;53.250;10.410;2022-09-09T04:56:49;7.23;;;6.53;;
13388;SDS011;6764;53.250;10.410;2022-09-09T04:59:15;7.10;;;6.40;;
13388;SDS011;6764;53.250;10.410;2022-09-09T05:01:41;7.23;;;6.50;;
13388;SDS011;6764;53.250;10.410;2022-09-09T05:04:07;6.60;;;6.00;;
13388;SDS011;6764;53.250;10.410;2022-09-09T05:06:34;7.13;;;5.67;;
13388;SDS011;6764;53.250;10.410;2022-09-09T05:09:01;6.40;;;5.80;;
13388;SDS011;6764;53.250;10.410;2022-09-09T05:11:27;6.13;;;5.53;;
13388;SDS011;6764;53.250;10.410;2022-09-09T05:13:54;7.00;;;6.20;;
13388;SDS011;6764;53.250;10.410;2022-09-09T05:16:21;7.38;;;6.60;;
13388;SDS011;6764;53.250;10.410;2022-09-09T05:18:47;6.77;;;6.17;;
13388;SDS011;6764;53.250;10.410;2022-09-09T05:21:15;6.50;;;5.90;;
13388;SDS011;6764;53.250;10.410;2022-09-09T05:23:41;9.13;;;6.07;;
13388;SDS011;6764;53.250;10.410;2022-09-09T05:26:09;6.43;;;5.83;;
13388;SDS011;6764;53.250;10.410;2022-09-09T05:28:38;8.27;;;5.97;;
13388;SDS011;6764;53.250;10.410;2022-09-09T05:31:05;6.07;;;5.13;;
13388;SDS011;6764;53.250;10.410;2022-09-09T05:33:36;8.23;;;5.47;;
13388;SDS011;6764;53.250;10.410;2022-09-09T05:36:06;6.10;;;5.50;;
13388;SDS011;6764;53.250;10.410;2022-09-09T05:38:33;5.63;;;5.13;;
13388;SDS011;6764;53.250;10.410;2022-09-09T05:41:00;6.97;;;5.20;;
13388;SDS011;6764;53.250;10.410;2022-09-09T05:43:27;5.70;;;5.10;;
13388;SDS011;6764;53.250;10.410;2022-09-09T05:46:03;7.03;;;5.00;;
13388;SDS011;6764;53.250;10.410;2022-09-09T05:48:31;6.18;;;5.07;;
13388;SDS011;6764;53.250;10.410;2022-09-09T05:50:59;7.37;;;4.67;;
13388;SDS011;6764;53.250;10.410;2022-09-09T05:53:26;5.35;;;4.40;;
13388;SDS011;6764;53.250;10.410;2022-09-09T05:55:58;9.10;;;5.60;;
13388;SDS011;6764;53.250;10.410;2022-09-09T05:58:25;4.68;;;4.28;;
13388;SDS011;6764;53.250;10.410;2022-09-09T06:00:50;4.47;;;4.03;;
13388;SDS011;6764;53.250;10.410;2022-09-09T06:03:16;4.80;;;4.30;;
13388;SDS011;6764;53.250;10.410;2022-09-09T06:05:42;4.43;;;3.70;;
13388;SDS011;6764;53.250;10.410;2022-09-09T06:08:07;5.20;;;3.90;;
13388;SDS011;6764;53.250;10.410;2022-09-09T06:10:33;5.87;;;4.00;;
13388;SDS011;6764;53.250;10.410;2022-09-09T06:12:59;5.60;;;4.23;;
13388;SDS011;6764;53.250;10.410;2022-09-09T06:15:25;5.97;;;3.72;;
13388;SDS011;6764;53.250;10.410;2022-09-09T06:17:55;5.70;;;3.63;;
13388;SDS011;6764;53.250;10.410;2022-09-09T06:20:21;6.27;;;5.07;;
13388;SDS011;6764;53.250;10.410;2022-09-09T06:22:47;9.05;;;4.43;;
13388;SDS011;6764;53.250;10.410;2022-09-09T06:25:13;6.93;;;4.22;;
13388;SDS011;6764;53.250;10.410;2022-09-09T06:27:39;4.65;;;4.07;;
13388;SDS011;6764;53.250;10.410;2022-09-09T06:30:07;4.67;;;3.90;;
13388;SDS011;6764;53.250;10.410;2022-09-09T06:32:33;5.40;;;3.15;;
13388;SDS011;6764;53.250;10.410;2022-09-09T06:34:59;5.00;;;3.60;;
13388;SDS011;6764;53.250;10.410;2022-09-09T06:37:26;4.03;;;3.63;;
13388;SDS011;6764;53.250;10.410;2022-09-09T06:39:52;5.22;;;3.63;;
13388;SDS011;6764;53.250;10.410;2022-09-09T06:42:19;4.97;;;3.75;;
13388;SDS011;6764;53.250;10.410;2022-09-09T06:44:45;3.60;;;3.30;;
13388;SDS011;6764;53.250;10.410;2022-09-09T06:47:10;4.90;;;3.13;;
13388;SDS011;6764;53.250;10.410;2022-09-09T06:49:36;4.60;;;3.42;;
13388;SDS011;6764;53.250;10.410;2022-09-09T06:52:01;5.13;;;3.60;;
13388;SDS011;6764;53.250;10.410;2022-09-09T06:54:27;3.78;;;2.90;;
13388;SDS011;6764;53.250;10.410;2022-09-09T06:56:53;4.50;;;2.73;;
13388;SDS011;6764;53.250;10.410;2022-09-09T06:59:19;6.15;;;4.22;;
13388;SDS011;6764;53.250;10.410;2022-09-09T07:01:44;4.70;;;2.90;;
13388;SDS011;6764;53.250;10.410;2022-09-09T07:04:11;5.13;;;3.60;;
13388;SDS011;6764;53.250;10.410;2022-09-09T07:06:40;4.20;;;2.90;;
13388;SDS011;6764;53.250;10.410;2022-09-09T07:09:11;3.08;;;2.45;;
13388;SDS011;6764;53.250;10.410;2022-09-09T07:11:49;5.72;;;2.70;;
13388;SDS011;6764;53.250;10.410;2022-09-09T07:14:17;3.42;;;2.53;;
13388;SDS011;6764;53.250;10.410;2022-09-09T07:16:43;4.05;;;2.72;;
13388;SDS011;6764;53.250;10.410;2022-09-09T07:19:10;2.83;;;2.53;;
13388;SDS011;6764;53.250;10.410;2022-09-09T07:21:37;3.45;;;2.63;;
13388;SDS011;6764;53.250;10.410;2022-09-09T07:24:05;2.60;;;2.40;;
13388;SDS011;6764;53.250;10.410;2022-09-09T07:26:34;4.05;;;2.70;;
13388;SDS011;6764;53.250;10.410;2022-09-09T07:29:01;3.70;;;2.70;;
13388;SDS011;6764;53.250;10.410;2022-09-09T07:31:27;4.15;;;2.60;;
13388;SDS011;6764;53.250;10.410;2022-09-09T07:33:55;2.80;;;2.30;;
13388;SDS011;6764;53.250;10.410;2022-09-09T07:36:26;8.32;;;2.45;;
13388;SDS011;6764;53.250;10.410;2022-09-09T07:38:54;3.65;;;2.38;;
13388;SDS011;6764;53.250;10.410;2022-09-09T07:41:25;4.10;;;2.40;;
13388;SDS011;6764;53.250;10.410;2022-09-09T07:43:55;3.88;;;2.30;;
13388;SDS011;6764;53.250;10.410;2022-09-09T07:46:22;5.72;;;2.40;;
13388;SDS011;6764;53.250;10.410;2022-09-09T07:48:54;4.53;;;2.22;;
13388;SDS011;6764;53.250;10.410;2022-09-09T07:51:22;3.20;;;2.08;;
13388;SDS011;6764;53.250;10.410;2022-09-09T07:53:55;3.45;;;1.88;;
13388;SDS011;6764;53.250;10.410;2022-09-09T07:56:23;2.08;;;1.65;;
13388;SDS011;6764;53.250;10.410;2022-09-09T07:58:50;3.05;;;1.90;;
13388;SDS011;6764;53.250;10.410;2022-09-09T08:01:21;4.10;;;2.03;;
13388;SDS011;6764;53.250;10.410;2022-09-09T08:03:52;2.95;;;1.70;;
13388;SDS011;6764;53.250;10.410;2022-09-09T08:06:30;3.25;;;2.00;;
13388;SDS011;6764;53.250;10.410;2022-09-09T08:08:58;4.68;;;2.20;;
13388;SDS011;6764;53.250;10.410;2022-09-09T08:11:25;6.00;;;2.17;;
13388;SDS011;6764;53.250;10.410;2022-09-09T08:13:52;4.18;;;1.88;;
13388;SDS011;6764;53.250;10.410;2022-09-09T08:16:20;2.90;;;2.10;;
13388;SDS011;6764;53.250;10.410;2022-09-09T08:18:50;4.47;;;2.13;;
13388;SDS011;6764;53.250;10.410;2022-09-09T08:21:20;3.35;;;1.95;;
13388;SDS011;6764;53.250;10.410;2022-09-09T08:23:49;3.80;;;2.72;;
13388;SDS011;6764;53.250;10.410;2022-09-09T08:26:17;4.70;;;2.08;;
13388;SDS011;6764;53.250;10.410;2022-09-09T08:28:46;4.18;;;1.83;;
13388;SDS011;6764;53.250;10.410;2022-09-09T08:31:22;4.90;;;1.98;;
13388;SDS011;6764;53.250;10.410;2022-09-09T08:33:53;4.95;;;2.00;;
13388;SDS011;6764;53.250;10.410;2022-09-09T08:36:20;4.43;;;2.03;;
13388;SDS011;6764;53.250;10.410;2022-09-09T08:38:51;2.60;;;1.67;;
13388;SDS011;6764;53.250;10.410;2022-09-09T08:46:55;15.75;;;11.07;;
13388;SDS011;6764;53.250;10.410;2022-09-09T08:49:59;7.25;;;2.10;;
13388;SDS011;6764;53.250;10.410;2022-09-09T08:55:52;4.50;;;2.35;;
13388;SDS011;6764;53.250;10.410;2022-09-09T08:58:20;3.92;;;1.80;;
13388;SDS011;6764;53.250;10.410;2022-09-09T09:03:55;6.35;;;2.17;;
13388;SDS011;6764;53.250;10.410;2022-09-09T09:09:20;2.60;;;1.70;;
13388;SDS011;6764;53.250;10.410;2022-09-09T09:11:59;5.28;;;1.90;;
13388;SDS011;6764;53.250;10.410;2022-09-09T09:14:30;4.82;;;1.50;;
13388;SDS011;6764;53.250;10.410;2022-09-09T09:19:29;2.72;;;1.80;;
13388;SDS011;6764;53.250;10.410;2022-09-09T09:22:10;5.15;;;1.83;;
13388;SDS011;6764;53.250;10.410;2022-09-09T09:27:43;3.42;;;1.83;;
13388;SDS011;6764;53.250;10.410;2022-09-09T09:30:16;4.70;;;1.80;;
13388;SDS011;6764;53.250;10.410;2022-09-09T09:32:49;4.53;;;1.80;;
13388;SDS011;6764;53.250;10.410;2022-09-09T09:35:40;3.78;;;1.80;;
13388;SDS011;6764;53.250;10.410;2022-09-09T09:38:39;3.75;;;1.95;;
13388;SDS011;6764;53.250;10.410;2022-09-09T09:40:59;3.88;;;2.17;;
13388;SDS011;6764;53.250;10.410;2022-09-09T09:43:29;4.90;;;1.92;;
13388;SDS011;6764;53.250;10.410;2022-09-09T09:45:56;3.85;;;1.67;;
13388;SDS011;6764;53.250;10.410;2022-09-09T09:48:26;7.78;;;1.98;;
13388;SDS011;6764;53.250;10.410;2022-09-09T09:50:56;5.05;;;2.30;;
13388;SDS011;6764;53.250;10.410;2022-09-09T09:53:32;5.53;;;2.33;;
13388;SDS011;6764;53.250;10.410;2022-09-09T09:56:00;4.53;;;2.47;;
13388;SDS011;6764;53.250;10.410;2022-09-09T09:58:30;2.53;;;1.55;;
13388;SDS011;6764;53.250;10.410;2022-09-09T10:00:58;2.10;;;1.45;;
13388;SDS011;6764;53.250;10.410;2022-09-09T10:05:51;4.75;;;1.63;;
13388;SDS011;6764;53.250;10.410;2022-09-09T10:08:17;3.40;;;1.52;;
13388;SDS011;6764;53.250;10.410;2022-09-09T10:13:50;3.95;;;1.85;;
13388;SDS011;6764;53.250;10.410;2022-09-09T10:19:05;3.13;;;2.03;;
13388;SDS011;6764;53.250;10.410;2022-09-09T10:29:26;2.72;;;1.80;;
13388;SDS011;6764;53.250;10.410;2022-09-09T10:32:06;5.90;;;2.67;;
13388;SDS011;6764;53.250;10.410;2022-09-09T10:40:21;2.83;;;1.58;;
13388;SDS011;6764;53.250;10.410;2022-09-09T10:43:38;2.80;;;1.25;;
13388;SDS011;6764;53.250;10.410;2022-09-09T10:48:30;4.53;;;2.00;;
13388;SDS011;6764;53.250;10.410;2022-09-09T10:56:17;1.98;;;1.50;;
13388;SDS011;6764;53.250;10.410;2022-09-09T11:01:21;2.83;;;1.50;;
13388;SDS011;6764;53.250;10.410;2022-09-09T11:03:55;3.78;;;1.70;;
13388;SDS011;6764;53.250;10.410;2022-09-09T11:06:28;4.03;;;1.90;;
13388;SDS011;6764;53.250;10.410;2022-09-09T11:08:59;1.65;;;1.10;;
13388;SDS011;6764;53.250;10.410;2022-09-09T11:12:15;4.28;;;1.45;;
13388;SDS011;6764;53.250;10.410;2022-09-09T11:14:26;1.25;;;1.15;;
13388;SDS011;6764;53.250;10.410;2022-09-09T11:16:56;4.03;;;1.30;;
13388;SDS011;6764;53.250;10.410;2022-09-09T11:19:32;2.35;;;1.27;;
13388;SDS011;6764;53.250;10.410;2022-09-09T11:24:48;2.35;;;1.42;;
13388;SDS011;6764;53.250;10.410;2022-09-09T11:30:43;4.78;;;1.55;;
13388;SDS011;6764;53.250;10.410;2022-09-09T11:36:35;6.45;;;2.88;;
13388;SDS011;6764;53.250;10.410;2022-09-09T11:42:05;2.53;;;1.52;;
13388;SDS011;6764;53.250;10.410;2022-09-09T11:44:51;2.65;;;1.48;;
13388;SDS011;6764;53.250;10.410;2022-09-09T11:47:26;1.42;;;1.17;;
13388;SDS011;6764;53.250;10.410;2022-09-09T11:52:41;8.80;;;3.35;;
13388;SDS011;6764;53.250;10.410;2022-09-09T11:57:58;8.10;;;3.25;;
13388;SDS011;6764;53.250;10.410;2022-09-09T12:00:38;3.72;;;2.13;;
13388;SDS011;6764;53.250;10.410;2022-09-09T12:06:00;4.35;;;2.65;;
13388;SDS011;6764;53.250;10.410;2022-09-09T12:08:36;2.55;;;2.03;;
13388;SDS011;6764;53.250;10.410;2022-09-09T12:11:05;5.95;;;2.83;;
13388;SDS011;6764;53.250;10.410;2022-09-09T12:13:31;5.80;;;2.75;;
13388;SDS011;6764;53.250;10.410;2022-09-09T12:15:58;5.65;;;2.60;;
13388;SDS011;6764;53.250;10.410;2022-09-09T12:18:33;5.15;;;2.90;;
13388;SDS011;6764;53.250;10.410;2022-09-09T12:23:57;4.15;;;2.42;;
13388;SDS011;6764;53.250;10.410;2022-09-09T12:26:35;2.13;;;1.80;;
13388;SDS011;6764;53.250;10.410;2022-09-09T12:31:46;2.53;;;1.75;;
13388;SDS011;6764;53.250;10.410;2022-09-09T12:37:15;4.38;;;1.90;;
13388;SDS011;6764;53.250;10.410;2022-09-09T12:40:00;3.45;;;1.90;;
13388;SDS011;6764;53.250;10.410;2022-09-09T12:42:28;5.05;;;2.03;;
13388;SDS011;6764;53.250;10.410;2022-09-09T12:45:02;5.97;;;4.38;;
13388;SDS011;6764;53.250;10.410;2022-09-09T12:47:44;2.90;;;2.08;;
13388;SDS011;6764;53.250;10.410;2022-09-09T12:50:31;3.00;;;2.20;;
13388;SDS011;6764;53.250;10.410;2022-09-09T12:53:01;4.32;;;2.15;;
13388;SDS011;6764;53.250;10.410;2022-09-09T12:55:40;2.83;;;1.85;;
13388;SDS011;6764;53.250;10.410;2022-09-09T12:58:33;3.85;;;1.90;;
13388;SDS011;6764;53.250;10.410;2022-09-09T13:01:02;4.03;;;1.85;;
13388;SDS011;6764;53.250;10.410;2022-09-09T13:03:30;3.13;;;1.92;;
13388;SDS011;6764;53.250;10.410;2022-09-09T13:05:57;2.88;;;1.98;;
13388;SDS011;6764;53.250;10.410;2022-09-09T13:08:34;6.68;;;2.20;;
13388;SDS011;6764;53.250;10.410;2022-09-09T13:11:01;2.90;;;1.80;;
13388;SDS011;6764;53.250;10.410;2022-09-09T13:13:38;5.00;;;1.92;;
13388;SDS011;6764;53.250;10.410;2022-09-09T13:16:07;3.75;;;2.03;;
13388;SDS011;6764;53.250;10.410;2022-09-09T13:18:46;2.05;;;1.52;;
13388;SDS011;6764;53.250;10.410;2022-09-09T13:21:12;3.28;;;1.80;;
13388;SDS011;6764;53.250;10.410;2022-09-09T13:23:38;3.00;;;2.47;;
13388;SDS011;6764;53.250;10.410;2022-09-09T13:26:05;3.33;;;2.20;;
13388;SDS011;6764;53.250;10.410;2022-09-09T13:28:46;3.67;;;1.92;;
13388;SDS011;6764;53.250;10.410;2022-09-09T13:31:27;3.20;;;2.50;;
13388;SDS011;6764;53.250;10.410;2022-09-09T13:33:58;3.42;;;2.00;;
13388;SDS011;6764;53.250;10.410;2022-09-09T13:36:31;4.13;;;3.00;;
13388;SDS011;6764;53.250;10.410;2022-09-09T13:39:00;4.70;;;2.20;;
13388;SDS011;6764;53.250;10.410;2022-09-09T13:41:34;3.90;;;2.03;;
13388;SDS011;6764;53.250;10.410;2022-09-09T13:44:02;3.38;;;2.00;;
13388;SDS011;6764;53.250;10.410;2022-09-09T13:54:04;4.18;;;2.40;;
13388;SDS011;6764;53.250;10.410;2022-09-09T13:56:31;4.30;;;2.33;;
13388;SDS011;6764;53.250;10.410;2022-09-09T13:58:58;4.65;;;2.30;;
13388;SDS011;6764;53.250;10.410;2022-09-09T14:01:24;5.88;;;2.58;;
13388;SDS011;6764;53.250;10.410;2022-09-09T14:03:49;4.22;;;2.40;;
13388;SDS011;6764;53.250;10.410;2022-09-09T14:06:15;6.45;;;2.40;;
13388;SDS011;6764;53.250;10.410;2022-09-09T14:08:43;3.17;;;1.60;;
13388;SDS011;6764;53.250;10.410;2022-09-09T14:11:11;4.88;;;1.88;;
13388;SDS011;6764;53.250;10.410;2022-09-09T14:13:38;3.47;;;2.20;;
13388;SDS011;6764;53.250;10.410;2022-09-09T14:16:04;4.55;;;1.90;;
13388;SDS011;6764;53.250;10.410;2022-09-09T14:18:30;5.18;;;2.38;;
13388;SDS011;6764;53.250;10.410;2022-09-09T14:20:56;5.28;;;2.13;;
13388;SDS011;6764;53.250;10.410;2022-09-09T14:23:23;4.32;;;2.17;;
13388;SDS011;6764;53.250;10.410;2022-09-09T14:25:49;3.72;;;1.65;;
13388;SDS011;6764;53.250;10.410;2022-09-09T14:28:16;1.98;;;1.33;;
13388;SDS011;6764;53.250;10.410;2022-09-09T14:30:42;3.58;;;1.70;;
13388;SDS011;6764;53.250;10.410;2022-09-09T14:33:12;5.35;;;3.15;;
13388;SDS011;6764;53.250;10.410;2022-09-09T14:35:39;1.40;;;1.30;;
13388;SDS011;6764;53.250;10.410;2022-09-09T14:38:06;5.53;;;1.80;;
13388;SDS011;6764;53.250;10.410;2022-09-09T14:40:33;3.45;;;1.75;;
13388;SDS011;6764;53.250;10.410;2022-09-09T14:43:00;4.97;;;2.78;;
13388;SDS011;6764;53.250;10.410;2022-09-09T14:45:25;2.88;;;1.60;;
13388;SDS011;6764;53.250;10.410;2022-09-09T14:47:52;4.28;;;2.25;;
13388;SDS011;6764;53.250;10.410;2022-09-09T14:50:21;3.38;;;1.48;;
13388;SDS011;6764;53.250;10.410;2022-09-09T14:52:47;4.15;;;1.67;;
13388;SDS011;6764;53.250;10.410;2022-09-09T14:55:13;2.45;;;1.55;;
13388;SDS011;6764;53.250;10.410;2022-09-09T14:57:40;4.10;;;1.92;;
13388;SDS011;6764;53.250;10.410;2022-09-09T15:00:07;3.45;;;1.80;;
13388;SDS011;6764;53.250;10.410;2022-09-09T15:02:33;4.28;;;2.03;;
13388;SDS011;6764;53.250;10.410;2022-09-09T15:04:59;2.17;;;1.30;;
13388;SDS011;6764;53.250;10.410;2022-09-09T15:07:26;3.67;;;1.50;;
13388;SDS011;6764;53.250;10.410;2022-09-09T15:09:53;2.55;;;1.70;;
13388;SDS011;6764;53.250;10.410;2022-09-09T15:12:19;6.32;;;2.40;;
13388;SDS011;6764;53.250;10.410;2022-09-09T15:14:45;3.95;;;1.88;;
13388;SDS011;6764;53.250;10.410;2022-09-09T15:17:11;4.60;;;2.33;;
13388;SDS011;6764;53.250;10.410;2022-09-09T15:19:38;4.13;;;1.80;;
13388;SDS011;6764;53.250;10.410;2022-09-09T15:22:04;2.45;;;1.80;;
13388;SDS011;6764;53.250;10.410;2022-09-09T15:24:31;3.13;;;1.63;;
13388;SDS011;6764;53.250;10.410;2022-09-09T15:26:57;3.83;;;1.90;;
13388;SDS011;6764;53.250;10.410;2022-09-09T15:29:23;2.95;;;1.80;;
13388;SDS011;6764;53.250;10.410;2022-09-09T15:31:49;5.82;;;3.38;;
13388;SDS011;6764;53.250;10.410;2022-09-09T15:34:14;3.45;;;2.95;;
13388;SDS011;6764;53.250;10.410;2022-09-09T15:36:41;5.05;;;3.15;;
13388;SDS011;6764;53.250;10.410;2022-09-09T15:39:09;4.70;;;3.45;;
13388;SDS011;6764;53.250;10.410;2022-09-09T15:41:37;5.20;;;3.30;;
13388;SDS011;6764;53.250;10.410;2022-09-09T15:44:04;4.80;;;2.72;;
13388;SDS011;6764;53.250;10.410;2022-09-09T15:46:37;4.78;;;2.33;;
13388;SDS011;6764;53.250;10.410;2022-09-09T15:49:11;7.88;;;2.63;;
13388;SDS011;6764;53.250;10.410;2022-09-09T15:51:38;6.22;;;3.30;;
13388;SDS011;6764;53.250;10.410;2022-09-09T15:54:06;3.55;;;2.55;;
13388;SDS011;6764;53.250;10.410;2022-09-09T15:56:32;10.80;;;8.35;;
13388;SDS011;6764;53.250;10.410;2022-09-09T15:58:58;4.22;;;3.70;;
13388;SDS011;6764;53.250;10.410;2022-09-09T16:01:25;4.65;;;3.00;;
13388;SDS011;6764;53.250;10.410;2022-09-09T16:03:52;6.50;;;3.15;;
13388;SDS011;6764;53.250;10.410;2022-09-09T16:06:19;4.55;;;2.75;;
13388;SDS011;6764;53.250;10.410;2022-09-09T16:08:46;4.68;;;2.75;;
13388;SDS011;6764;53.250;10.410;2022-09-09T16:11:17;4.78;;;2.97;;
13388;SDS011;6764;53.250;10.410;2022-09-09T16:13:48;6.72;;;3.53;;
13388;SDS011;6764;53.250;10.410;2022-09-09T16:16:16;6.70;;;3.03;;
13388;SDS011;6764;53.250;10.410;2022-09-09T16:18:47;7.90;;;4.20;;
13388;SDS011;6764;53.250;10.410;2022-09-09T16:23:49;11.93;;;7.18;;
13388;SDS011;6764;53.250;10.410;2022-09-09T16:26:16;11.27;;;6.55;;
13388;SDS011;6764;53.250;10.410;2022-09-09T16:28:43;9.45;;;6.10;;
13388;SDS011;6764;53.250;10.410;2022-09-09T16:31:12;5.03;;;4.10;;
13388;SDS011;6764;53.250;10.410;2022-09-09T16:33:40;4.53;;;2.55;;
13388;SDS011;6764;53.250;10.410;2022-09-09T16:36:07;4.22;;;2.47;;
13388;SDS011;6764;53.250;10.410;2022-09-09T16:38:35;3.72;;;1.98;;
13388;SDS011;6764;53.250;10.410;2022-09-09T16:41:02;5.97;;;3.10;;
13388;SDS011;6764;53.250;10.410;2022-09-09T16:43:31;4.05;;;2.63;;
13388;SDS011;6764;53.250;10.410;2022-09-09T16:45:57;3.00;;;2.72;;
13388;SDS011;6764;53.250;10.410;2022-09-09T16:48:25;5.18;;;2.88;;
13388;SDS011;6764;53.250;10.410;2022-09-09T16:51:04;3.60;;;2.50;;
13388;SDS011;6764;53.250;10.410;2022-09-09T16:53:33;4.50;;;2.67;;
13388;SDS011;6764;53.250;10.410;2022-09-09T16:56:06;4.38;;;2.33;;
13388;SDS011;6764;53.250;10.410;2022-09-09T16:58:33;3.95;;;2.35;;
13388;SDS011;6764;53.250;10.410;2022-09-09T17:00:59;4.38;;;2.08;;
13388;SDS011;6764;53.250;10.410;2022-09-09T17:03:27;4.65;;;1.80;;
13388;SDS011;6764;53.250;10.410;2022-09-09T17:05:53;4.35;;;2.30;;
13388;SDS011;6764;53.250;10.410;2022-09-09T17:08:18;2.92;;;2.17;;
13388;SDS011;6764;53.250;10.410;2022-09-09T17:10:44;2.75;;;2.28;;
13388;SDS011;6764;53.250;10.410;2022-09-09T17:13:10;4.75;;;3.22;;
13388;SDS011;6764;53.250;10.410;2022-09-09T17:15:40;5.22;;;2.85;;
13388;SDS011;6764;53.250;10.410;2022-09-09T17:18:08;4.18;;;2.47;;